createdAt,value
2018-01-31T01:52:20.422Z,0
2018-01-31T01:52:21.032Z,0
2018-01-31T01:52:38.776Z,0
2018-01-31T01:53:19.344Z,0
2018-01-31T01:53:59.908Z,0
2018-01-31T01:54:40.464Z,0
2018-01-31T01:55:21.015Z,0
2018-01-31T01:56:01.579Z,0
2018-01-31T01:56:42.126Z,0
2018-01-31T01:57:22.690Z,0
2018-01-31T01:58:03.241Z,0
2018-01-31T01:58:43.799Z,0
2018-01-31T01:59:24.353Z,0
2018-01-31T02:00:04.923Z,0
2018-01-31T02:00:45.501Z,0
2018-01-31T02:01:26.057Z,0
2018-01-31T02:02:06.619Z,0
2018-01-31T02:02:47.175Z,0
2018-01-31T02:03:27.737Z,0
2018-01-31T02:04:08.305Z,0
2018-01-31T02:04:48.855Z,0
2018-01-31T02:05:29.424Z,0
2018-01-31T02:06:10.012Z,0
2018-01-31T02:06:50.563Z,0
2018-01-31T02:07:31.113Z,0
2018-01-31T02:08:11.681Z,0
2018-01-31T02:08:52.251Z,0
2018-01-31T02:09:32.820Z,0
2018-01-31T02:10:13.375Z,0
2018-01-31T02:10:53.934Z,0
2018-01-31T02:11:34.494Z,0
2018-01-31T02:12:15.059Z,0
2018-01-31T02:12:55.629Z,0
2018-01-31T02:13:36.187Z,0
2018-01-31T02:14:16.758Z,0
2018-01-31T02:14:57.305Z,0
2018-01-31T02:15:37.886Z,0
2018-01-31T02:16:18.440Z,0
2018-01-31T02:16:59.004Z,0
2018-01-31T02:17:39.570Z,0
2018-01-31T02:18:20.133Z,0
2018-01-31T02:19:00.697Z,0
2018-01-31T02:19:41.257Z,0
2018-01-31T02:20:21.827Z,0
2018-01-31T02:21:02.382Z,0
2018-01-31T02:21:42.927Z,0
2018-01-31T02:22:23.502Z,0
2018-01-31T02:23:04.065Z,0
2018-01-31T02:23:44.645Z,0
2018-01-31T02:24:25.203Z,0
2018-01-31T02:25:05.767Z,0
2018-01-31T02:25:46.339Z,0
2018-01-31T02:26:26.889Z,0
2018-01-31T02:27:07.465Z,0
2018-01-31T02:27:48.014Z,0
2018-01-31T02:28:28.572Z,0
2018-01-31T02:29:09.143Z,0
2018-01-31T02:29:49.718Z,0
2018-01-31T02:30:30.271Z,0
2018-01-31T02:31:10.849Z,0
2018-01-31T02:31:51.421Z,0
2018-01-31T02:32:31.982Z,0
2018-01-31T02:33:12.551Z,0
2018-01-31T02:33:53.122Z,0
2018-01-31T02:34:33.672Z,0
2018-01-31T02:35:14.229Z,0
2018-01-31T02:35:54.786Z,0
2018-01-31T02:36:35.358Z,0
2018-01-31T02:37:15.975Z,0
2018-01-31T02:37:56.570Z,0
2018-01-31T02:38:37.136Z,0
2018-01-31T02:39:17.698Z,0
2018-01-31T02:39:58.262Z,0
2018-01-31T02:40:38.835Z,0
2018-01-31T02:41:19.392Z,0
2018-01-31T02:41:59.943Z,0
2018-01-31T02:42:40.497Z,0
2018-01-31T02:43:21.064Z,0
2018-01-31T02:44:01.624Z,0
2018-01-31T02:44:42.181Z,0
2018-01-31T02:45:22.743Z,0
2018-01-31T02:46:03.302Z,0
2018-01-31T02:46:43.871Z,0
2018-01-31T02:47:24.433Z,0
2018-01-31T02:48:04.990Z,0
2018-01-31T02:48:45.553Z,0
2018-01-31T02:49:26.143Z,0
2018-01-31T02:50:06.714Z,0
2018-01-31T02:50:47.302Z,0
2018-01-31T02:51:27.899Z,0
2018-01-31T02:52:08.459Z,0
2018-01-31T02:52:49.017Z,0
2018-01-31T02:53:29.588Z,0
2018-01-31T02:54:10.166Z,0
2018-01-31T02:54:50.718Z,0
2018-01-31T02:55:31.293Z,0
2018-01-31T02:56:11.856Z,0
2018-01-31T02:56:52.416Z,0
2018-01-31T02:57:32.998Z,0
2018-01-31T02:58:13.568Z,0
2018-01-31T02:58:54.121Z,0
2018-01-31T02:59:34.682Z,0
2018-01-31T03:00:15.249Z,0
2018-01-31T03:00:55.800Z,0
2018-01-31T03:01:36.352Z,0
2018-01-31T03:02:16.915Z,0
2018-01-31T03:02:57.467Z,0
2018-01-31T03:03:38.020Z,0
2018-01-31T03:04:18.580Z,0
2018-01-31T03:04:59.119Z,0
2018-01-31T03:05:39.676Z,0
2018-01-31T03:06:20.232Z,0
2018-01-31T03:07:00.784Z,0
2018-01-31T03:07:41.334Z,0
2018-01-31T03:08:21.896Z,0
2018-01-31T03:09:02.446Z,0
2018-01-31T03:09:43.014Z,0
2018-01-31T03:10:23.572Z,0
2018-01-31T03:11:04.137Z,0
2018-01-31T03:11:44.693Z,0
2018-01-31T03:12:25.251Z,0
2018-01-31T03:13:05.798Z,0
2018-01-31T03:13:46.353Z,0
2018-01-31T03:14:26.922Z,0
2018-01-31T03:15:07.493Z,0
2018-01-31T03:15:48.067Z,0
2018-01-31T03:16:28.621Z,0
2018-01-31T03:17:09.173Z,0
2018-01-31T03:17:49.735Z,0
2018-01-31T03:18:30.289Z,0
2018-01-31T03:19:10.845Z,0
2018-01-31T03:19:51.399Z,0
2018-01-31T03:20:31.961Z,0
2018-01-31T03:21:12.519Z,0
2018-01-31T03:21:53.084Z,0
2018-01-31T03:22:33.642Z,0
2018-01-31T03:23:14.207Z,0
2018-01-31T03:23:54.751Z,0
2018-01-31T03:24:35.355Z,0
2018-01-31T03:25:15.905Z,0
2018-01-31T03:25:56.456Z,0
2018-01-31T03:26:37.106Z,0
2018-01-31T03:27:17.676Z,0
2018-01-31T03:27:58.237Z,0
2018-01-31T03:28:38.780Z,0
2018-01-31T03:29:19.336Z,0
2018-01-31T03:29:59.893Z,0
2018-01-31T03:30:40.450Z,0
2018-01-31T03:31:21.016Z,0
2018-01-31T03:32:01.566Z,0
2018-01-31T03:32:42.131Z,0
2018-01-31T03:33:22.683Z,0
2018-01-31T03:34:03.244Z,0
2018-01-31T03:34:43.828Z,0
2018-01-31T03:35:24.392Z,0
2018-01-31T03:36:04.946Z,0
2018-01-31T03:36:45.515Z,0
2018-01-31T03:37:26.096Z,0
2018-01-31T03:38:06.642Z,0
2018-01-31T03:38:47.210Z,0
2018-01-31T03:39:27.777Z,0
2018-01-31T03:40:08.325Z,0
2018-01-31T03:40:48.880Z,0
2018-01-31T03:41:29.442Z,0
2018-01-31T03:42:09.989Z,0
2018-01-31T03:42:50.560Z,0
2018-01-31T03:43:31.129Z,0
2018-01-31T03:44:11.696Z,0
2018-01-31T03:44:52.257Z,0
2018-01-31T03:45:32.823Z,0
2018-01-31T03:46:13.425Z,0
2018-01-31T03:46:53.979Z,0
2018-01-31T03:47:34.541Z,0
2018-01-31T03:48:15.102Z,0
2018-01-31T03:48:55.665Z,0
2018-01-31T03:49:36.229Z,0
2018-01-31T03:50:16.787Z,0
2018-01-31T03:50:57.340Z,0
2018-01-31T03:51:37.901Z,0
2018-01-31T03:52:18.455Z,0
2018-01-31T03:52:59.016Z,0
2018-01-31T03:53:39.570Z,0
2018-01-31T03:54:20.133Z,0
2018-01-31T03:55:00.676Z,0
2018-01-31T03:55:41.255Z,0
2018-01-31T03:56:21.812Z,0
2018-01-31T03:57:02.369Z,0
2018-01-31T03:57:42.928Z,0
2018-01-31T03:58:23.504Z,0
2018-01-31T03:59:04.053Z,0
2018-01-31T03:59:44.606Z,0
2018-01-31T04:00:25.160Z,0
2018-01-31T04:01:05.732Z,0
2018-01-31T04:01:46.272Z,0
2018-01-31T04:02:26.841Z,0
2018-01-31T04:03:07.401Z,0
2018-01-31T04:03:47.947Z,0
2018-01-31T04:04:28.505Z,0
2018-01-31T04:05:09.057Z,0
2018-01-31T04:05:49.610Z,0
2018-01-31T04:06:30.169Z,0
2018-01-31T04:07:10.725Z,0
2018-01-31T04:07:51.285Z,0
2018-01-31T04:08:31.837Z,0
2018-01-31T04:09:12.381Z,0
2018-01-31T04:09:52.966Z,0
2018-01-31T04:10:33.524Z,0
2018-01-31T04:11:14.126Z,0
2018-01-31T04:11:54.641Z,0
2018-01-31T04:12:35.214Z,0
2018-01-31T04:13:15.773Z,0
2018-01-31T04:13:56.336Z,0
2018-01-31T04:14:36.906Z,0
2018-01-31T04:15:17.461Z,0
2018-01-31T04:15:58.026Z,0
2018-01-31T04:16:38.596Z,0
2018-01-31T04:17:19.176Z,0
2018-01-31T04:17:59.720Z,0
2018-01-31T04:18:40.274Z,0
2018-01-31T04:19:20.829Z,0
2018-01-31T04:20:01.383Z,0
2018-01-31T04:20:41.974Z,0
2018-01-31T04:21:22.534Z,0
2018-01-31T04:22:03.115Z,0
2018-01-31T04:22:43.700Z,0
2018-01-31T04:23:24.273Z,0
2018-01-31T04:24:04.825Z,0
2018-01-31T04:24:45.401Z,0
2018-01-31T04:25:25.973Z,0
2018-01-31T04:26:06.519Z,0
2018-01-31T04:26:47.094Z,0
2018-01-31T04:27:27.646Z,0
2018-01-31T04:28:08.221Z,0
2018-01-31T04:28:48.788Z,0
2018-01-31T04:29:29.340Z,0
2018-01-31T04:30:09.882Z,0
2018-01-31T04:30:50.444Z,0
2018-01-31T04:31:30.996Z,0
2018-01-31T04:32:11.575Z,0
2018-01-31T04:32:52.135Z,0
2018-01-31T04:33:32.708Z,0
2018-01-31T04:34:13.272Z,0
2018-01-31T04:34:53.817Z,0
2018-01-31T04:35:34.369Z,0
2018-01-31T04:36:14.959Z,0
2018-01-31T04:36:55.519Z,0
2018-01-31T04:37:36.084Z,0
2018-01-31T04:38:16.633Z,0
2018-01-31T04:38:57.218Z,0
2018-01-31T04:39:37.791Z,0
2018-01-31T04:40:18.344Z,0
2018-01-31T04:40:58.902Z,0
2018-01-31T04:41:39.465Z,0
2018-01-31T04:42:20.054Z,0
2018-01-31T04:43:00.605Z,0
2018-01-31T04:43:41.211Z,0
2018-01-31T04:44:21.722Z,0
2018-01-31T04:45:02.281Z,0
2018-01-31T04:45:42.839Z,0
2018-01-31T04:46:23.400Z,0
2018-01-31T04:47:03.960Z,0
2018-01-31T04:47:44.524Z,0
2018-01-31T04:48:25.105Z,0
2018-01-31T04:49:05.661Z,0
2018-01-31T04:49:46.223Z,0
2018-01-31T04:50:26.859Z,0
2018-01-31T04:51:07.419Z,0
2018-01-31T04:51:47.982Z,0
2018-01-31T04:52:28.534Z,0
2018-01-31T04:53:09.102Z,0
2018-01-31T04:53:49.655Z,0
2018-01-31T04:54:30.229Z,0
2018-01-31T04:55:10.798Z,0
2018-01-31T04:55:51.371Z,0
2018-01-31T04:56:31.925Z,0
2018-01-31T04:57:12.472Z,0
2018-01-31T04:57:53.064Z,0
2018-01-31T04:58:33.620Z,0
2018-01-31T04:59:14.186Z,0
2018-01-31T04:59:54.754Z,0
2018-01-31T05:00:35.341Z,0
2018-01-31T05:01:15.888Z,0
2018-01-31T05:01:56.446Z,0
2018-01-31T05:02:37.026Z,0
2018-01-31T05:03:17.595Z,0
2018-01-31T05:03:58.146Z,0
2018-01-31T05:04:38.707Z,0
2018-01-31T05:05:19.266Z,0
2018-01-31T05:05:59.830Z,0
2018-01-31T05:06:40.388Z,0
2018-01-31T05:07:20.944Z,0
2018-01-31T05:08:01.495Z,0
2018-01-31T05:08:42.077Z,0
2018-01-31T05:09:22.645Z,0
2018-01-31T05:10:03.220Z,0
2018-01-31T05:10:43.788Z,0
2018-01-31T05:11:24.338Z,0
2018-01-31T05:12:04.893Z,0
2018-01-31T05:12:45.457Z,0
2018-01-31T05:13:26.024Z,0
2018-01-31T05:14:06.575Z,0
2018-01-31T05:14:47.128Z,0
2018-01-31T05:15:27.682Z,0
2018-01-31T05:16:08.251Z,0
2018-01-31T05:16:48.813Z,0
2018-01-31T05:17:29.373Z,0
2018-01-31T05:18:09.934Z,0
2018-01-31T05:18:50.523Z,0
2018-01-31T05:19:31.085Z,0
2018-01-31T05:20:11.651Z,0
2018-01-31T05:20:52.199Z,0
2018-01-31T05:21:32.769Z,0
2018-01-31T05:22:13.322Z,0
2018-01-31T05:22:53.884Z,0
2018-01-31T05:23:34.444Z,0
2018-01-31T05:24:15.023Z,0
2018-01-31T05:24:55.577Z,0
2018-01-31T05:25:36.157Z,0
2018-01-31T05:26:16.712Z,0
2018-01-31T05:26:57.264Z,0
2018-01-31T05:27:37.831Z,0
2018-01-31T05:28:18.391Z,0
2018-01-31T05:28:58.943Z,0
2018-01-31T05:29:39.495Z,0
2018-01-31T05:30:20.060Z,0
2018-01-31T05:31:00.654Z,0
2018-01-31T05:31:41.219Z,0
2018-01-31T05:32:21.900Z,0
2018-01-31T05:33:02.455Z,0
2018-01-31T05:33:43.023Z,0
2018-01-31T05:34:23.575Z,0
2018-01-31T05:35:04.140Z,0
2018-01-31T05:35:44.705Z,0
2018-01-31T05:36:25.274Z,0
2018-01-31T05:37:05.843Z,0
2018-01-31T05:37:46.416Z,0
2018-01-31T05:38:26.979Z,0
2018-01-31T05:39:07.532Z,0
2018-01-31T05:39:48.100Z,0
2018-01-31T05:40:28.664Z,0
2018-01-31T05:41:09.222Z,0
2018-01-31T05:41:49.782Z,0
2018-01-31T05:42:30.347Z,0
2018-01-31T05:43:10.900Z,0
2018-01-31T05:43:51.440Z,0
2018-01-31T05:44:31.989Z,0
2018-01-31T05:45:12.631Z,0
2018-01-31T05:45:53.124Z,0
2018-01-31T05:46:33.662Z,0
2018-01-31T05:47:14.223Z,0
2018-01-31T05:47:54.803Z,0
2018-01-31T05:48:35.377Z,0
2018-01-31T05:49:15.939Z,0
2018-01-31T05:49:56.497Z,0
2018-01-31T05:50:37.050Z,0
2018-01-31T05:51:17.598Z,0
2018-01-31T05:51:58.161Z,0
2018-01-31T05:52:38.719Z,0
2018-01-31T05:53:19.277Z,0
2018-01-31T05:53:59.830Z,0
2018-01-31T05:54:40.390Z,0
2018-01-31T05:55:20.950Z,0
2018-01-31T05:56:01.501Z,0
2018-01-31T05:56:42.054Z,0
2018-01-31T05:57:22.613Z,0
2018-01-31T05:58:03.173Z,0
2018-01-31T05:58:43.737Z,0
2018-01-31T05:59:24.284Z,0
2018-01-31T06:00:04.838Z,0
2018-01-31T06:00:45.392Z,0
2018-01-31T06:01:25.949Z,0
2018-01-31T06:02:06.513Z,0
2018-01-31T06:02:47.069Z,0
2018-01-31T06:03:27.652Z,0
2018-01-31T06:04:08.196Z,0
2018-01-31T06:04:48.750Z,0
2018-01-31T06:05:29.307Z,0
2018-01-31T06:06:09.869Z,0
2018-01-31T06:06:50.449Z,0
2018-01-31T06:07:31.048Z,0
2018-01-31T06:08:11.671Z,0
2018-01-31T06:08:52.258Z,0
2018-01-31T06:09:32.823Z,0
2018-01-31T06:10:13.501Z,0
2018-01-31T06:10:54.103Z,0
2018-01-31T06:11:34.697Z,0
2018-01-31T06:12:15.244Z,0
2018-01-31T06:12:55.802Z,0
2018-01-31T06:13:36.348Z,0
2018-01-31T06:14:16.927Z,0
2018-01-31T06:14:57.510Z,0
2018-01-31T06:15:38.040Z,0
2018-01-31T06:16:18.600Z,0
2018-01-31T06:16:59.160Z,0
2018-01-31T06:17:39.733Z,0
2018-01-31T06:18:20.350Z,0
2018-01-31T06:19:00.903Z,0
2018-01-31T06:19:41.431Z,0
2018-01-31T06:20:22.003Z,0
2018-01-31T06:21:02.560Z,0
2018-01-31T06:21:43.110Z,0
2018-01-31T06:22:23.668Z,0
2018-01-31T06:23:04.695Z,0
2018-01-31T06:23:45.250Z,0
2018-01-31T06:24:26.666Z,0
2018-01-31T06:25:07.223Z,0
2018-01-31T06:25:47.786Z,0
2018-01-31T06:26:28.344Z,0
2018-01-31T06:27:08.892Z,0
2018-01-31T06:27:49.465Z,0
2018-01-31T06:28:30.034Z,0
2018-01-31T06:29:10.598Z,0
2018-01-31T06:29:51.163Z,0
2018-01-31T06:30:31.755Z,0
2018-01-31T06:31:12.322Z,0
2018-01-31T06:31:52.891Z,0
2018-01-31T06:32:33.478Z,0
2018-01-31T06:33:14.055Z,0
2018-01-31T06:33:54.612Z,0
2018-01-31T06:34:35.182Z,0
2018-01-31T06:35:15.764Z,0
2018-01-31T06:35:56.622Z,0
2018-01-31T06:36:37.173Z,0
2018-01-31T06:37:17.748Z,0
2018-01-31T06:37:58.309Z,0
2018-01-31T06:38:39.460Z,0
2018-01-31T06:39:19.825Z,0
2018-01-31T06:40:00.398Z,0
2018-01-31T06:40:40.964Z,0
2018-01-31T06:41:21.518Z,0
2018-01-31T06:42:02.117Z,0
2018-01-31T06:42:42.694Z,0
2018-01-31T06:43:23.626Z,0
2018-01-31T06:44:04.240Z,0
2018-01-31T06:44:45.040Z,0
2018-01-31T06:45:25.651Z,0
2018-01-31T06:46:06.231Z,0
2018-01-31T06:46:46.818Z,0
2018-01-31T06:47:27.475Z,0
2018-01-31T06:48:08.125Z,0
2018-01-31T06:48:48.672Z,0
2018-01-31T06:49:29.245Z,0
2018-01-31T06:50:09.816Z,0
2018-01-31T06:50:50.383Z,0
2018-01-31T06:51:30.942Z,0
2018-01-31T06:52:11.490Z,0
2018-01-31T06:52:52.050Z,0
2018-01-31T06:53:32.783Z,0
2018-01-31T06:54:13.333Z,0
2018-01-31T06:54:54.093Z,0
2018-01-31T06:55:34.629Z,0
2018-01-31T06:56:15.203Z,0
2018-01-31T06:56:55.787Z,0
2018-01-31T06:57:36.352Z,0
2018-01-31T06:58:16.909Z,0
2018-01-31T06:58:57.466Z,0
2018-01-31T06:59:38.008Z,0
2018-01-31T07:00:18.598Z,0
2018-01-31T07:00:59.153Z,0
2018-01-31T07:01:39.770Z,0
2018-01-31T07:02:20.298Z,0
2018-01-31T07:03:00.937Z,0
2018-01-31T07:03:41.639Z,0
2018-01-31T07:04:22.233Z,0
2018-01-31T07:05:02.799Z,0
2018-01-31T07:05:43.426Z,0
2018-01-31T07:06:24.867Z,0
2018-01-31T07:07:05.496Z,0
2018-01-31T07:07:46.049Z,0
2018-01-31T07:08:26.621Z,5
2018-01-31T07:09:07.176Z,5
2018-01-31T07:09:47.753Z,5
2018-01-31T07:10:28.319Z,5
2018-01-31T07:11:08.891Z,10
2018-01-31T07:11:49.439Z,10
2018-01-31T07:12:29.996Z,10
2018-01-31T07:13:10.607Z,10
2018-01-31T07:13:51.153Z,10
2018-01-31T07:14:31.723Z,10
2018-01-31T07:15:12.294Z,10
2018-01-31T07:15:52.893Z,10
2018-01-31T07:16:33.444Z,10
2018-01-31T07:17:14.010Z,10
2018-01-31T07:17:54.564Z,10
2018-01-31T07:18:35.134Z,10
2018-01-31T07:19:15.696Z,15
2018-01-31T07:19:56.281Z,15
2018-01-31T07:20:37.156Z,20
2018-01-31T07:21:17.726Z,20
2018-01-31T07:21:58.292Z,20
2018-01-31T07:22:38.846Z,20
2018-01-31T07:23:19.421Z,15
2018-01-31T07:23:59.997Z,15
2018-01-31T07:24:40.607Z,10
2018-01-31T07:25:23.139Z,10
2018-01-31T07:26:03.762Z,10
2018-01-31T07:26:44.365Z,10
2018-01-31T07:27:24.928Z,10
2018-01-31T07:28:05.483Z,10
2018-01-31T07:28:46.480Z,10
2018-01-31T07:29:27.048Z,10
2018-01-31T07:30:07.733Z,10
2018-01-31T07:30:48.343Z,10
2018-01-31T07:31:29.114Z,10
2018-01-31T07:32:09.667Z,15
2018-01-31T07:32:50.224Z,15
2018-01-31T07:33:31.463Z,15
2018-01-31T07:34:12.024Z,15
2018-01-31T07:34:52.622Z,20
2018-01-31T07:35:33.305Z,20
2018-01-31T07:36:14.812Z,20
2018-01-31T07:36:55.364Z,20
2018-01-31T07:37:35.932Z,20
2018-01-31T07:38:16.503Z,20
2018-01-31T07:38:57.072Z,20
2018-01-31T07:39:37.710Z,25
2018-01-31T07:40:18.264Z,25
2018-01-31T07:40:58.813Z,20
2018-01-31T07:41:39.393Z,25
2018-01-31T07:42:19.991Z,25
2018-01-31T07:43:00.556Z,20
2018-01-31T07:43:41.168Z,20
2018-01-31T07:44:21.785Z,20
2018-01-31T07:45:02.344Z,20
2018-01-31T07:45:42.920Z,20
2018-01-31T07:46:23.476Z,20
2018-01-31T07:47:04.039Z,25
2018-01-31T07:47:44.641Z,25
2018-01-31T07:48:25.696Z,25
2018-01-31T07:49:06.249Z,25
2018-01-31T07:49:46.831Z,25
2018-01-31T07:50:27.483Z,25
2018-01-31T07:51:08.083Z,25
2018-01-31T07:51:48.758Z,25
2018-01-31T07:52:29.310Z,25
2018-01-31T07:53:10.179Z,25
2018-01-31T07:53:50.750Z,30
2018-01-31T07:54:31.321Z,35
2018-01-31T07:55:11.874Z,40
2018-01-31T07:55:52.440Z,45
2018-01-31T07:56:33.033Z,45
2018-01-31T07:57:13.564Z,45
2018-01-31T07:57:54.115Z,50
2018-01-31T07:58:34.679Z,50
2018-01-31T07:59:15.233Z,50
2018-01-31T07:59:55.787Z,45
2018-01-31T08:00:36.352Z,45
2018-01-31T08:01:16.912Z,45
2018-01-31T08:01:57.463Z,40
2018-01-31T08:02:38.036Z,40
2018-01-31T08:03:18.608Z,40
2018-01-31T08:03:59.168Z,40
2018-01-31T08:04:39.723Z,40
2018-01-31T08:05:20.282Z,40
2018-01-31T08:06:00.841Z,40
2018-01-31T08:06:41.403Z,35
2018-01-31T08:07:21.949Z,35
2018-01-31T08:08:02.490Z,30
2018-01-31T08:08:43.045Z,30
2018-01-31T08:09:23.605Z,25
2018-01-31T08:10:05.120Z,25
2018-01-31T08:10:45.674Z,25
2018-01-31T08:11:26.246Z,25
2018-01-31T08:12:06.810Z,25
2018-01-31T08:12:47.371Z,25
2018-01-31T08:13:27.937Z,25
2018-01-31T08:14:08.481Z,25
2018-01-31T08:14:49.038Z,25
2018-01-31T08:15:29.640Z,25
2018-01-31T08:16:10.139Z,25
2018-01-31T08:16:50.686Z,25
2018-01-31T08:17:31.240Z,25
2018-01-31T08:18:11.788Z,20
2018-01-31T08:18:52.330Z,20
2018-01-31T08:19:32.888Z,20
2018-01-31T08:20:13.443Z,20
2018-01-31T08:20:54.047Z,20
2018-01-31T08:21:34.620Z,20
2018-01-31T08:22:15.169Z,20
2018-01-31T08:22:55.730Z,20
2018-01-31T08:23:36.295Z,20
2018-01-31T08:24:16.848Z,20
2018-01-31T08:24:57.412Z,20
2018-01-31T08:25:37.964Z,20
2018-01-31T08:26:18.512Z,20
2018-01-31T08:26:59.140Z,15
2018-01-31T08:27:39.698Z,15
2018-01-31T08:28:20.265Z,20
2018-01-31T08:29:00.845Z,20
2018-01-31T08:29:41.403Z,20
2018-01-31T08:30:21.971Z,20
2018-01-31T08:31:02.534Z,25
2018-01-31T08:31:43.078Z,25
2018-01-31T08:32:23.620Z,25
2018-01-31T08:33:04.190Z,25
2018-01-31T08:33:44.745Z,25
2018-01-31T08:34:25.299Z,25
2018-01-31T08:35:05.864Z,25
2018-01-31T08:35:46.415Z,25
2018-01-31T08:36:26.985Z,20
2018-01-31T08:37:07.544Z,20
2018-01-31T08:37:48.090Z,20
2018-01-31T08:38:28.641Z,20
2018-01-31T08:39:09.190Z,20
2018-01-31T08:39:49.743Z,20
2018-01-31T08:40:30.301Z,20
2018-01-31T08:41:10.898Z,20
2018-01-31T08:41:51.448Z,20
2018-01-31T08:42:32.017Z,20
2018-01-31T08:43:12.575Z,20
2018-01-31T08:43:53.126Z,20
2018-01-31T08:44:33.688Z,20
2018-01-31T08:45:14.233Z,25
2018-01-31T08:45:54.782Z,25
2018-01-31T08:46:35.359Z,20
2018-01-31T08:47:15.910Z,20
2018-01-31T08:47:56.475Z,20
2018-01-31T08:48:37.034Z,20
2018-01-31T08:49:17.593Z,15
2018-01-31T08:49:58.144Z,15
2018-01-31T08:50:38.724Z,15
2018-01-31T08:51:19.288Z,15
2018-01-31T08:51:59.849Z,15
2018-01-31T08:52:40.423Z,15
2018-01-31T08:53:20.971Z,15
2018-01-31T08:54:01.539Z,15
2018-01-31T08:54:42.081Z,15
2018-01-31T08:55:22.634Z,15
2018-01-31T08:56:03.188Z,20
2018-01-31T08:56:43.743Z,20
2018-01-31T08:57:24.302Z,15
2018-01-31T08:58:04.858Z,15
2018-01-31T08:58:45.423Z,15
2018-01-31T08:59:25.988Z,15
2018-01-31T09:00:06.535Z,15
2018-01-31T09:00:47.122Z,15
2018-01-31T09:01:27.652Z,20
2018-01-31T09:02:08.211Z,20
2018-01-31T09:02:48.763Z,15
2018-01-31T09:03:29.313Z,15
2018-01-31T09:04:09.861Z,15
2018-01-31T09:04:50.419Z,15
2018-01-31T09:05:30.966Z,15
2018-01-31T09:06:11.511Z,15
2018-01-31T09:06:52.077Z,15
2018-01-31T09:07:32.618Z,15
2018-01-31T09:08:13.168Z,15
2018-01-31T09:08:53.705Z,15
2018-01-31T09:09:34.297Z,15
2018-01-31T09:10:14.820Z,15
2018-01-31T09:10:55.369Z,15
2018-01-31T09:11:35.920Z,15
2018-01-31T09:12:16.472Z,15
2018-01-31T09:12:57.023Z,15
2018-01-31T09:13:37.573Z,15
2018-01-31T09:14:18.130Z,15
2018-01-31T09:14:58.678Z,15
2018-01-31T09:15:39.233Z,15
2018-01-31T09:16:19.781Z,15
2018-01-31T09:17:00.332Z,15
2018-01-31T09:17:40.887Z,15
2018-01-31T09:18:21.458Z,15
2018-01-31T09:19:02.028Z,15
2018-01-31T09:19:42.584Z,15
2018-01-31T09:20:23.150Z,15
2018-01-31T09:21:03.706Z,15
2018-01-31T09:21:44.261Z,15
2018-01-31T09:22:24.818Z,15
2018-01-31T09:23:05.397Z,20
2018-01-31T09:23:45.946Z,20
2018-01-31T09:24:26.491Z,25
2018-01-31T09:25:07.104Z,25
2018-01-31T09:25:47.621Z,20
2018-01-31T09:26:28.200Z,20
2018-01-31T09:27:08.758Z,20
2018-01-31T09:27:49.325Z,20
2018-01-31T09:28:29.882Z,20
2018-01-31T09:29:10.428Z,15
2018-01-31T09:29:50.986Z,15
2018-01-31T09:30:31.542Z,15
2018-01-31T09:31:12.106Z,15
2018-01-31T09:31:52.648Z,15
2018-01-31T09:32:33.206Z,20
2018-01-31T09:33:13.752Z,25
2018-01-31T09:33:54.304Z,25
2018-01-31T09:34:34.870Z,25
2018-01-31T09:35:15.428Z,25
2018-01-31T09:35:55.962Z,20
2018-01-31T09:36:36.523Z,20
2018-01-31T09:37:17.056Z,20
2018-01-31T09:37:57.614Z,15
2018-01-31T09:38:38.153Z,20
2018-01-31T09:39:18.695Z,20
2018-01-31T09:39:59.243Z,20
2018-01-31T09:40:39.811Z,20
2018-01-31T09:41:20.369Z,15
2018-01-31T09:42:00.928Z,20
2018-01-31T09:42:41.496Z,25
2018-01-31T09:43:22.075Z,30
2018-01-31T09:44:02.654Z,30
2018-01-31T09:44:43.177Z,25
2018-01-31T09:45:23.735Z,20
2018-01-31T09:46:04.297Z,20
2018-01-31T09:46:44.854Z,30
2018-01-31T09:47:25.408Z,25
2018-01-31T09:48:05.960Z,20
2018-01-31T09:48:46.516Z,15
2018-01-31T09:49:27.080Z,15
2018-01-31T09:50:07.646Z,15
2018-01-31T09:50:48.192Z,15
2018-01-31T09:51:28.770Z,20
2018-01-31T09:52:09.363Z,25
2018-01-31T09:52:49.923Z,25
2018-01-31T09:53:30.581Z,30
2018-01-31T09:54:11.038Z,30
2018-01-31T09:54:51.580Z,25
2018-01-31T09:55:32.143Z,20
2018-01-31T09:56:12.695Z,20
2018-01-31T09:56:53.252Z,15
2018-01-31T09:57:33.810Z,10
2018-01-31T09:58:14.372Z,10
2018-01-31T09:58:54.924Z,10
2018-01-31T09:59:35.481Z,10
2018-01-31T10:00:16.045Z,10
2018-01-31T10:00:56.602Z,15
2018-01-31T10:01:37.176Z,15
2018-01-31T10:02:17.730Z,20
2018-01-31T10:02:58.284Z,15
2018-01-31T10:03:38.844Z,15
2018-01-31T10:04:19.406Z,15
2018-01-31T10:04:59.960Z,15
2018-01-31T10:05:40.508Z,15
2018-01-31T10:06:21.095Z,20
2018-01-31T10:07:01.657Z,20
2018-01-31T10:07:42.233Z,20
2018-01-31T10:08:22.788Z,20
2018-01-31T10:09:03.345Z,20
2018-01-31T10:09:43.890Z,25
2018-01-31T10:10:24.445Z,25
2018-01-31T10:11:04.987Z,20
2018-01-31T10:11:45.541Z,15
2018-01-31T10:12:26.099Z,15
2018-01-31T10:13:06.664Z,10
2018-01-31T10:13:47.221Z,15
2018-01-31T10:14:27.771Z,15
2018-01-31T10:15:08.313Z,20
2018-01-31T10:15:48.880Z,20
2018-01-31T10:16:29.433Z,20
2018-01-31T10:17:09.998Z,20
2018-01-31T10:17:50.565Z,20
2018-01-31T10:18:31.119Z,15
2018-01-31T10:19:11.683Z,15
2018-01-31T10:19:52.278Z,20
2018-01-31T10:20:32.835Z,15
2018-01-31T10:21:13.388Z,15
2018-01-31T10:21:53.954Z,15
2018-01-31T10:22:34.505Z,15
2018-01-31T10:23:15.085Z,15
2018-01-31T10:23:55.649Z,15
2018-01-31T10:24:36.226Z,15
2018-01-31T10:25:16.775Z,15
2018-01-31T10:25:57.326Z,15
2018-01-31T10:26:37.888Z,15
2018-01-31T10:27:18.440Z,15
2018-01-31T10:27:58.996Z,15
2018-01-31T10:28:39.551Z,15
2018-01-31T10:29:20.118Z,15
2018-01-31T10:30:00.669Z,15
2018-01-31T10:30:41.226Z,15
2018-01-31T10:31:21.813Z,15
2018-01-31T10:32:02.514Z,20
2018-01-31T10:32:43.330Z,20
2018-01-31T10:33:24.044Z,20
2018-01-31T10:34:04.792Z,20
2018-01-31T10:34:45.543Z,20
2018-01-31T10:35:26.297Z,20
2018-01-31T10:36:06.857Z,20
2018-01-31T10:36:47.411Z,20
2018-01-31T10:37:27.961Z,20
2018-01-31T10:38:08.529Z,20
2018-01-31T10:38:49.092Z,20
2018-01-31T10:39:29.661Z,20
2018-01-31T10:40:10.226Z,20
2018-01-31T10:40:50.794Z,25
2018-01-31T10:41:31.346Z,25
2018-01-31T10:42:11.944Z,25
2018-01-31T10:42:52.507Z,25
2018-01-31T10:43:33.070Z,25
2018-01-31T10:44:13.630Z,25
2018-01-31T10:44:54.200Z,25
2018-01-31T10:45:34.776Z,25
2018-01-31T10:46:15.335Z,25
2018-01-31T10:46:55.893Z,25
2018-01-31T10:47:36.442Z,30
2018-01-31T10:48:17.005Z,30
2018-01-31T10:48:57.561Z,30
2018-01-31T10:49:38.127Z,30
2018-01-31T10:50:18.684Z,35
2018-01-31T10:50:59.235Z,35
2018-01-31T10:51:39.805Z,35
2018-01-31T10:52:20.361Z,35
2018-01-31T10:53:00.914Z,30
2018-01-31T10:57:28.864Z,35
2018-01-31T10:57:44.846Z,35
2018-01-31T10:58:25.476Z,35
2018-01-31T10:59:06.025Z,35
2018-01-31T10:59:46.592Z,30
2018-01-31T11:00:27.158Z,30
2018-01-31T11:01:07.716Z,30
2018-01-31T11:01:48.289Z,30
2018-01-31T11:02:28.844Z,25
2018-01-31T11:03:09.479Z,25
2018-01-31T11:03:50.049Z,25
2018-01-31T11:04:30.607Z,30
2018-01-31T11:05:11.176Z,30
2018-01-31T11:05:51.863Z,30
2018-01-31T11:06:32.431Z,30
2018-01-31T11:07:13.002Z,30
2018-01-31T11:07:53.585Z,30
2018-01-31T11:08:34.218Z,25
2018-01-31T11:09:14.880Z,25
2018-01-31T11:09:55.455Z,30
2018-01-31T11:10:36.043Z,30
2018-01-31T11:11:16.605Z,25
2018-01-31T11:11:57.162Z,20
2018-01-31T11:12:37.717Z,20
2018-01-31T11:13:18.272Z,20
2018-01-31T11:13:58.846Z,20
2018-01-31T11:14:39.414Z,20
2018-01-31T11:15:19.974Z,20
2018-01-31T11:16:00.536Z,20
2018-01-31T11:16:41.108Z,25
2018-01-31T11:17:21.672Z,25
2018-01-31T11:18:02.231Z,25
2018-01-31T11:18:42.780Z,25
2018-01-31T11:19:23.334Z,25
2018-01-31T11:20:03.892Z,30
2018-01-31T11:20:44.452Z,30
2018-01-31T11:21:25.008Z,30
2018-01-31T11:22:05.561Z,30
2018-01-31T11:22:46.110Z,35
2018-01-31T11:23:26.660Z,35
2018-01-31T11:24:07.255Z,35
2018-01-31T11:24:47.823Z,40
2018-01-31T11:25:28.384Z,40
2018-01-31T11:26:08.935Z,35
2018-01-31T11:26:49.490Z,35
2018-01-31T11:27:30.036Z,30
2018-01-31T11:28:10.619Z,35
2018-01-31T11:28:51.181Z,35
2018-01-31T11:29:31.738Z,35
2018-01-31T11:30:12.303Z,40
2018-01-31T11:30:52.867Z,40
2018-01-31T11:31:33.441Z,35
2018-01-31T11:32:13.994Z,40
2018-01-31T11:32:54.545Z,40
2018-01-31T11:33:35.114Z,40
2018-01-31T11:34:15.658Z,35
2018-01-31T11:34:56.207Z,35
2018-01-31T11:35:36.769Z,35
2018-01-31T11:36:17.324Z,30
2018-01-31T11:36:57.873Z,25
2018-01-31T11:37:38.439Z,30
2018-01-31T11:38:19.005Z,30
2018-01-31T11:38:59.550Z,30
2018-01-31T11:39:40.104Z,30
2018-01-31T11:40:20.663Z,35
2018-01-31T11:41:01.256Z,35
2018-01-31T11:41:41.806Z,35
2018-01-31T11:42:22.364Z,35
2018-01-31T11:43:02.958Z,35
2018-01-31T11:43:43.519Z,35
2018-01-31T11:44:24.088Z,35